sensor_id;sensor_type;location;lat;lon;timestamp;P1;durP1;ratioP1;P2;durP2;ratioP2
8632;SDS011;4354;49.832;10.746;2023-07-24T00:01:10;11.43;;;3.83;;
8632;SDS011;4354;49.832;10.746;2023-07-24T00:03:36;5.53;;;3.80;;
8632;SDS011;4354;49.832;10.746;2023-07-24T00:06:03;5.07;;;3.85;;
8632;SDS011;4354;49.832;10.746;2023-07-24T00:08:30;4.35;;;3.95;;
8632;SDS011;4354;49.832;10.746;2023-07-24T00:10:57;6.93;;;4.43;;
8632;SDS011;4354;49.832;10.746;2023-07-24T00:13:24;6.22;;;4.30;;
8632;SDS011;4354;49.832;10.746;2023-07-24T00:15:51;4.05;;;3.63;;
8632;SDS011;4354;49.832;10.746;2023-07-24T00:18:18;5.40;;;4.38;;
8632;SDS011;4354;49.832;10.746;2023-07-24T00:20:45;7.38;;;4.05;;
8632;SDS011;4354;49.832;10.746;2023-07-24T00:23:11;6.25;;;3.97;;
8632;SDS011;4354;49.832;10.746;2023-07-24T00:25:38;4.20;;;3.80;;
8632;SDS011;4354;49.832;10.746;2023-07-24T00:28:05;5.88;;;4.10;;
8632;SDS011;4354;49.832;10.746;2023-07-24T00:30:32;5.70;;;4.47;;
8632;SDS011;4354;49.832;10.746;2023-07-24T00:32:59;4.65;;;4.22;;
8632;SDS011;4354;49.832;10.746;2023-07-24T00:35:25;5.22;;;4.53;;
8632;SDS011;4354;49.832;10.746;2023-07-24T00:37:53;5.78;;;4.03;;
8632;SDS011;4354;49.832;10.746;2023-07-24T00:40:20;7.00;;;4.47;;
8632;SDS011;4354;49.832;10.746;2023-07-24T00:42:47;5.18;;;4.68;;
8632;SDS011;4354;49.832;10.746;2023-07-24T00:45:14;6.30;;;4.68;;
8632;SDS011;4354;49.832;10.746;2023-07-24T00:47:42;6.07;;;5.13;;
8632;SDS011;4354;49.832;10.746;2023-07-24T00:50:09;6.95;;;5.50;;
8632;SDS011;4354;49.832;10.746;2023-07-24T00:52:37;6.45;;;5.15;;
8632;SDS011;4354;49.832;10.746;2023-07-24T00:55:04;7.28;;;4.85;;
8632;SDS011;4354;49.832;10.746;2023-07-24T00:57:32;6.80;;;5.43;;
8632;SDS011;4354;49.832;10.746;2023-07-24T00:59:59;6.22;;;5.28;;
8632;SDS011;4354;49.832;10.746;2023-07-24T01:02:26;6.35;;;5.28;;
8632;SDS011;4354;49.832;10.746;2023-07-24T01:04:53;7.30;;;5.47;;
8632;SDS011;4354;49.832;10.746;2023-07-24T01:07:20;5.90;;;5.13;;
8632;SDS011;4354;49.832;10.746;2023-07-24T01:09:47;7.55;;;5.53;;
8632;SDS011;4354;49.832;10.746;2023-07-24T01:12:31;7.13;;;5.60;;
8632;SDS011;4354;49.832;10.746;2023-07-24T01:18:00;6.38;;;5.15;;
8632;SDS011;4354;49.832;10.746;2023-07-24T01:20:35;7.05;;;5.20;;
8632;SDS011;4354;49.832;10.746;2023-07-24T01:26:00;6.95;;;5.28;;
8632;SDS011;4354;49.832;10.746;2023-07-24T01:28:28;8.18;;;5.57;;
8632;SDS011;4354;49.832;10.746;2023-07-24T01:30:55;8.80;;;5.53;;
8632;SDS011;4354;49.832;10.746;2023-07-24T01:33:23;6.30;;;5.28;;
8632;SDS011;4354;49.832;10.746;2023-07-24T01:35:53;6.47;;;5.70;;
8632;SDS011;4354;49.832;10.746;2023-07-24T01:38:23;7.35;;;5.60;;
8632;SDS011;4354;49.832;10.746;2023-07-24T01:40:52;7.65;;;5.60;;
8632;SDS011;4354;49.832;10.746;2023-07-24T01:43:20;9.27;;;6.07;;
8632;SDS011;4354;49.832;10.746;2023-07-24T01:45:47;6.43;;;5.50;;
8632;SDS011;4354;49.832;10.746;2023-07-24T01:48:13;7.22;;;5.75;;
8632;SDS011;4354;49.832;10.746;2023-07-24T01:50:40;8.73;;;6.18;;
8632;SDS011;4354;49.832;10.746;2023-07-24T01:53:07;7.75;;;6.00;;
8632;SDS011;4354;49.832;10.746;2023-07-24T01:55:34;6.60;;;5.45;;
8632;SDS011;4354;49.832;10.746;2023-07-24T01:58:01;6.55;;;5.50;;
8632;SDS011;4354;49.832;10.746;2023-07-24T02:00:28;7.13;;;6.00;;
8632;SDS011;4354;49.832;10.746;2023-07-24T02:02:54;8.00;;;6.25;;
8632;SDS011;4354;49.832;10.746;2023-07-24T02:05:21;8.07;;;6.22;;
8632;SDS011;4354;49.832;10.746;2023-07-24T02:07:48;6.40;;;5.50;;
8632;SDS011;4354;49.832;10.746;2023-07-24T02:10:15;6.88;;;5.47;;
8632;SDS011;4354;49.832;10.746;2023-07-24T02:12:42;7.85;;;6.28;;
8632;SDS011;4354;49.832;10.746;2023-07-24T02:15:09;6.95;;;5.78;;
8632;SDS011;4354;49.832;10.746;2023-07-24T02:17:35;7.47;;;6.60;;
8632;SDS011;4354;49.832;10.746;2023-07-24T02:20:03;8.75;;;6.20;;
8632;SDS011;4354;49.832;10.746;2023-07-24T02:22:30;7.10;;;5.85;;
8632;SDS011;4354;49.832;10.746;2023-07-24T02:24:57;7.35;;;6.35;;
8632;SDS011;4354;49.832;10.746;2023-07-24T02:27:25;7.88;;;5.95;;
8632;SDS011;4354;49.832;10.746;2023-07-24T02:30:00;9.23;;;6.43;;
8632;SDS011;4354;49.832;10.746;2023-07-24T02:32:27;8.05;;;6.25;;
8632;SDS011;4354;49.832;10.746;2023-07-24T02:34:55;7.75;;;6.30;;
8632;SDS011;4354;49.832;10.746;2023-07-24T02:37:21;7.35;;;6.40;;
8632;SDS011;4354;49.832;10.746;2023-07-24T02:39:48;8.90;;;6.25;;
8632;SDS011;4354;49.832;10.746;2023-07-24T02:42:15;6.95;;;6.25;;
8632;SDS011;4354;49.832;10.746;2023-07-24T02:44:42;9.55;;;6.45;;
8632;SDS011;4354;49.832;10.746;2023-07-24T02:47:08;8.00;;;6.20;;
8632;SDS011;4354;49.832;10.746;2023-07-24T02:49:35;8.10;;;6.75;;
8632;SDS011;4354;49.832;10.746;2023-07-24T02:52:02;11.05;;;6.63;;
8632;SDS011;4354;49.832;10.746;2023-07-24T02:54:29;8.95;;;6.70;;
8632;SDS011;4354;49.832;10.746;2023-07-24T02:56:56;8.18;;;6.55;;
8632;SDS011;4354;49.832;10.746;2023-07-24T02:59:24;9.13;;;6.30;;
8632;SDS011;4354;49.832;10.746;2023-07-24T03:01:50;7.03;;;6.15;;
8632;SDS011;4354;49.832;10.746;2023-07-24T03:04:18;8.93;;;6.82;;
8632;SDS011;4354;49.832;10.746;2023-07-24T03:06:44;7.07;;;6.07;;
8632;SDS011;4354;49.832;10.746;2023-07-24T03:09:11;7.47;;;6.35;;
8632;SDS011;4354;49.832;10.746;2023-07-24T03:11:38;7.72;;;5.90;;
8632;SDS011;4354;49.832;10.746;2023-07-24T03:14:05;6.70;;;6.00;;
8632;SDS011;4354;49.832;10.746;2023-07-24T03:16:31;7.15;;;5.88;;
8632;SDS011;4354;49.832;10.746;2023-07-24T03:18:58;7.57;;;6.57;;
8632;SDS011;4354;49.832;10.746;2023-07-24T03:21:25;8.68;;;6.25;;
8632;SDS011;4354;49.832;10.746;2023-07-24T03:23:52;7.28;;;6.57;;
8632;SDS011;4354;49.832;10.746;2023-07-24T03:26:19;7.38;;;6.40;;
8632;SDS011;4354;49.832;10.746;2023-07-24T03:28:45;8.38;;;7.10;;
8632;SDS011;4354;49.832;10.746;2023-07-24T03:31:12;7.10;;;6.13;;
8632;SDS011;4354;49.832;10.746;2023-07-24T03:33:39;8.13;;;6.97;;
8632;SDS011;4354;49.832;10.746;2023-07-24T03:36:06;9.48;;;7.18;;
8632;SDS011;4354;49.832;10.746;2023-07-24T03:38:33;8.10;;;6.70;;
8632;SDS011;4354;49.832;10.746;2023-07-24T03:41:00;9.40;;;6.68;;
8632;SDS011;4354;49.832;10.746;2023-07-24T03:43:27;8.75;;;6.97;;
8632;SDS011;4354;49.832;10.746;2023-07-24T03:45:54;7.68;;;6.57;;
8632;SDS011;4354;49.832;10.746;2023-07-24T03:48:21;7.10;;;6.18;;
8632;SDS011;4354;49.832;10.746;2023-07-24T03:50:49;8.65;;;7.13;;
8632;SDS011;4354;49.832;10.746;2023-07-24T03:53:17;9.05;;;6.97;;
8632;SDS011;4354;49.832;10.746;2023-07-24T03:55:43;10.05;;;6.88;;
8632;SDS011;4354;49.832;10.746;2023-07-24T03:58:10;9.02;;;7.20;;
8632;SDS011;4354;49.832;10.746;2023-07-24T04:00:37;9.40;;;6.78;;
8632;SDS011;4354;49.832;10.746;2023-07-24T04:03:04;8.23;;;7.30;;
8632;SDS011;4354;49.832;10.746;2023-07-24T04:05:31;8.27;;;6.93;;
8632;SDS011;4354;49.832;10.746;2023-07-24T04:08:00;8.85;;;7.10;;
8632;SDS011;4354;49.832;10.746;2023-07-24T04:10:27;8.20;;;6.55;;
8632;SDS011;4354;49.832;10.746;2023-07-24T04:12:54;10.23;;;7.32;;
8632;SDS011;4354;49.832;10.746;2023-07-24T04:15:20;8.60;;;7.00;;
8632;SDS011;4354;49.832;10.746;2023-07-24T04:17:47;8.65;;;7.75;;
8632;SDS011;4354;49.832;10.746;2023-07-24T04:20:14;10.70;;;7.75;;
8632;SDS011;4354;49.832;10.746;2023-07-24T04:22:41;8.73;;;7.25;;
8632;SDS011;4354;49.832;10.746;2023-07-24T04:25:08;9.70;;;8.00;;
8632;SDS011;4354;49.832;10.746;2023-07-24T04:27:34;11.90;;;7.65;;
8632;SDS011;4354;49.832;10.746;2023-07-24T04:30:01;9.27;;;7.28;;
8632;SDS011;4354;49.832;10.746;2023-07-24T04:32:28;7.40;;;6.60;;
8632;SDS011;4354;49.832;10.746;2023-07-24T04:34:55;18.98;;;9.10;;
8632;SDS011;4354;49.832;10.746;2023-07-24T04:37:21;15.88;;;8.90;;
8632;SDS011;4354;49.832;10.746;2023-07-24T04:39:48;14.93;;;9.25;;
8632;SDS011;4354;49.832;10.746;2023-07-24T04:42:15;12.52;;;8.65;;
8632;SDS011;4354;49.832;10.746;2023-07-24T04:44:42;11.30;;;8.80;;
8632;SDS011;4354;49.832;10.746;2023-07-24T04:47:09;14.25;;;9.35;;
8632;SDS011;4354;49.832;10.746;2023-07-24T04:49:36;11.35;;;8.23;;
8632;SDS011;4354;49.832;10.746;2023-07-24T04:52:03;13.32;;;9.27;;
8632;SDS011;4354;49.832;10.746;2023-07-24T04:54:30;16.60;;;9.82;;
8632;SDS011;4354;49.832;10.746;2023-07-24T04:56:57;10.02;;;8.93;;
8632;SDS011;4354;49.832;10.746;2023-07-24T04:59:23;13.63;;;10.18;;
8632;SDS011;4354;49.832;10.746;2023-07-24T05:01:50;13.25;;;9.32;;
8632;SDS011;4354;49.832;10.746;2023-07-24T05:04:17;13.57;;;9.30;;
8632;SDS011;4354;49.832;10.746;2023-07-24T05:06:44;17.08;;;10.70;;
8632;SDS011;4354;49.832;10.746;2023-07-24T05:09:10;13.05;;;10.30;;
8632;SDS011;4354;49.832;10.746;2023-07-24T05:11:37;15.77;;;9.90;;
8632;SDS011;4354;49.832;10.746;2023-07-24T05:14:04;14.45;;;9.63;;
8632;SDS011;4354;49.832;10.746;2023-07-24T05:16:31;14.35;;;10.25;;
8632;SDS011;4354;49.832;10.746;2023-07-24T05:18:58;12.85;;;9.23;;
8632;SDS011;4354;49.832;10.746;2023-07-24T05:21:25;10.95;;;9.65;;
8632;SDS011;4354;49.832;10.746;2023-07-24T05:23:52;11.13;;;9.77;;
8632;SDS011;4354;49.832;10.746;2023-07-24T05:26:18;15.48;;;10.82;;
8632;SDS011;4354;49.832;10.746;2023-07-24T05:28:45;12.30;;;10.20;;
8632;SDS011;4354;49.832;10.746;2023-07-24T05:31:12;13.73;;;10.38;;
8632;SDS011;4354;49.832;10.746;2023-07-24T05:33:39;13.43;;;9.82;;
8632;SDS011;4354;49.832;10.746;2023-07-24T05:36:05;17.33;;;11.23;;
8632;SDS011;4354;49.832;10.746;2023-07-24T05:38:32;15.93;;;11.43;;
8632;SDS011;4354;49.832;10.746;2023-07-24T05:41:00;16.90;;;10.85;;
8632;SDS011;4354;49.832;10.746;2023-07-24T05:43:28;15.57;;;11.23;;
8632;SDS011;4354;49.832;10.746;2023-07-24T05:45:56;17.65;;;12.50;;
8632;SDS011;4354;49.832;10.746;2023-07-24T05:48:23;15.27;;;11.30;;
8632;SDS011;4354;49.832;10.746;2023-07-24T05:50:51;15.93;;;11.43;;
8632;SDS011;4354;49.832;10.746;2023-07-24T05:53:18;17.33;;;12.32;;
8632;SDS011;4354;49.832;10.746;2023-07-24T05:55:45;14.10;;;11.05;;
8632;SDS011;4354;49.832;10.746;2023-07-24T05:58:11;14.35;;;10.93;;
8632;SDS011;4354;49.832;10.746;2023-07-24T06:00:38;20.25;;;11.32;;
8632;SDS011;4354;49.832;10.746;2023-07-24T06:03:05;13.23;;;10.70;;
8632;SDS011;4354;49.832;10.746;2023-07-24T06:05:34;14.45;;;10.75;;
8632;SDS011;4354;49.832;10.746;2023-07-24T06:08:01;17.05;;;10.60;;
8632;SDS011;4354;49.832;10.746;2023-07-24T06:10:27;14.23;;;10.70;;
8632;SDS011;4354;49.832;10.746;2023-07-24T06:12:54;14.48;;;10.85;;
8632;SDS011;4354;49.832;10.746;2023-07-24T06:15:21;13.93;;;10.60;;
8632;SDS011;4354;49.832;10.746;2023-07-24T06:17:48;14.60;;;10.38;;
8632;SDS011;4354;49.832;10.746;2023-07-24T06:20:19;10.90;;;9.50;;
8632;SDS011;4354;49.832;10.746;2023-07-24T06:22:46;13.70;;;11.27;;
8632;SDS011;4354;49.832;10.746;2023-07-24T06:25:13;13.10;;;10.88;;
8632;SDS011;4354;49.832;10.746;2023-07-24T06:27:40;13.70;;;10.30;;
8632;SDS011;4354;49.832;10.746;2023-07-24T06:30:07;13.35;;;10.63;;
8632;SDS011;4354;49.832;10.746;2023-07-24T06:32:41;14.57;;;10.70;;
8632;SDS011;4354;49.832;10.746;2023-07-24T06:35:07;14.50;;;10.80;;
8632;SDS011;4354;49.832;10.746;2023-07-24T06:37:34;14.57;;;10.45;;
8632;SDS011;4354;49.832;10.746;2023-07-24T06:40:01;12.35;;;9.95;;
8632;SDS011;4354;49.832;10.746;2023-07-24T06:42:29;12.07;;;9.93;;
8632;SDS011;4354;49.832;10.746;2023-07-24T06:44:55;12.07;;;10.07;;
8632;SDS011;4354;49.832;10.746;2023-07-24T06:47:22;12.27;;;9.90;;
8632;SDS011;4354;49.832;10.746;2023-07-24T06:49:49;13.13;;;11.15;;
8632;SDS011;4354;49.832;10.746;2023-07-24T06:52:16;11.63;;;9.90;;
8632;SDS011;4354;49.832;10.746;2023-07-24T06:54:43;12.18;;;10.40;;
8632;SDS011;4354;49.832;10.746;2023-07-24T06:57:09;11.23;;;9.95;;
8632;SDS011;4354;49.832;10.746;2023-07-24T06:59:36;15.13;;;10.40;;
8632;SDS011;4354;49.832;10.746;2023-07-24T07:02:03;13.15;;;10.05;;
8632;SDS011;4354;49.832;10.746;2023-07-24T07:04:30;10.80;;;9.63;;
8632;SDS011;4354;49.832;10.746;2023-07-24T07:06:57;10.93;;;9.32;;
8632;SDS011;4354;49.832;10.746;2023-07-24T07:09:23;11.95;;;10.02;;
8632;SDS011;4354;49.832;10.746;2023-07-24T07:11:50;12.13;;;9.63;;
8632;SDS011;4354;49.832;10.746;2023-07-24T07:14:17;11.23;;;9.27;;
8632;SDS011;4354;49.832;10.746;2023-07-24T07:16:43;13.38;;;10.10;;
8632;SDS011;4354;49.832;10.746;2023-07-24T07:19:10;11.80;;;10.02;;
8632;SDS011;4354;49.832;10.746;2023-07-24T07:21:37;11.52;;;10.05;;
8632;SDS011;4354;49.832;10.746;2023-07-24T07:24:04;11.68;;;10.02;;
8632;SDS011;4354;49.832;10.746;2023-07-24T07:26:31;11.32;;;9.73;;
8632;SDS011;4354;49.832;10.746;2023-07-24T07:28:58;11.00;;;9.80;;
8632;SDS011;4354;49.832;10.746;2023-07-24T07:31:25;11.75;;;10.52;;
8632;SDS011;4354;49.832;10.746;2023-07-24T07:33:52;13.18;;;10.52;;
8632;SDS011;4354;49.832;10.746;2023-07-24T07:36:19;15.02;;;10.07;;
8632;SDS011;4354;49.832;10.746;2023-07-24T07:38:48;12.27;;;9.27;;
8632;SDS011;4354;49.832;10.746;2023-07-24T07:41:15;11.55;;;9.95;;
8632;SDS011;4354;49.832;10.746;2023-07-24T07:43:42;12.00;;;9.70;;
8632;SDS011;4354;49.832;10.746;2023-07-24T07:46:08;13.00;;;9.70;;
8632;SDS011;4354;49.832;10.746;2023-07-24T07:48:35;11.77;;;9.88;;
8632;SDS011;4354;49.832;10.746;2023-07-24T07:51:02;11.00;;;9.45;;
8632;SDS011;4354;49.832;10.746;2023-07-24T07:53:29;10.77;;;9.35;;
8632;SDS011;4354;49.832;10.746;2023-07-24T07:55:58;12.68;;;10.02;;
8632;SDS011;4354;49.832;10.746;2023-07-24T07:58:28;12.52;;;10.20;;
8632;SDS011;4354;49.832;10.746;2023-07-24T08:00:55;10.98;;;9.68;;
8632;SDS011;4354;49.832;10.746;2023-07-24T08:03:22;11.02;;;9.57;;
8632;SDS011;4354;49.832;10.746;2023-07-24T08:05:49;12.32;;;10.25;;
8632;SDS011;4354;49.832;10.746;2023-07-24T08:08:16;11.35;;;9.98;;
8632;SDS011;4354;49.832;10.746;2023-07-24T08:10:42;11.65;;;9.30;;
8632;SDS011;4354;49.832;10.746;2023-07-24T08:13:09;13.63;;;9.70;;
8632;SDS011;4354;49.832;10.746;2023-07-24T08:15:36;11.15;;;9.95;;
8632;SDS011;4354;49.832;10.746;2023-07-24T08:18:04;11.25;;;10.15;;
8632;SDS011;4354;49.832;10.746;2023-07-24T08:20:32;13.40;;;10.13;;
8632;SDS011;4354;49.832;10.746;2023-07-24T08:23:01;12.60;;;11.05;;
8632;SDS011;4354;49.832;10.746;2023-07-24T08:25:28;12.93;;;10.50;;
8632;SDS011;4354;49.832;10.746;2023-07-24T08:27:54;12.90;;;10.30;;
8632;SDS011;4354;49.832;10.746;2023-07-24T08:30:31;12.27;;;9.57;;
8632;SDS011;4354;49.832;10.746;2023-07-24T08:32:58;11.25;;;9.73;;
8632;SDS011;4354;49.832;10.746;2023-07-24T08:35:25;11.80;;;9.93;;
8632;SDS011;4354;49.832;10.746;2023-07-24T08:37:52;11.27;;;9.85;;
8632;SDS011;4354;49.832;10.746;2023-07-24T08:40:19;13.43;;;10.93;;
8632;SDS011;4354;49.832;10.746;2023-07-24T08:42:47;12.40;;;9.60;;
8632;SDS011;4354;49.832;10.746;2023-07-24T08:45:15;11.82;;;9.95;;
8632;SDS011;4354;49.832;10.746;2023-07-24T08:47:43;13.30;;;10.48;;
8632;SDS011;4354;49.832;10.746;2023-07-24T08:50:11;12.48;;;10.75;;
8632;SDS011;4354;49.832;10.746;2023-07-24T08:52:38;11.77;;;10.55;;
8632;SDS011;4354;49.832;10.746;2023-07-24T08:55:06;13.90;;;10.13;;
8632;SDS011;4354;49.832;10.746;2023-07-24T08:57:33;14.10;;;10.70;;
8632;SDS011;4354;49.832;10.746;2023-07-24T09:00:01;13.65;;;10.23;;
8632;SDS011;4354;49.832;10.746;2023-07-24T09:02:35;11.70;;;10.23;;
8632;SDS011;4354;49.832;10.746;2023-07-24T09:05:02;13.00;;;10.38;;
8632;SDS011;4354;49.832;10.746;2023-07-24T09:07:30;11.43;;;10.07;;
8632;SDS011;4354;49.832;10.746;2023-07-24T09:09:57;12.55;;;9.32;;
8632;SDS011;4354;49.832;10.746;2023-07-24T09:12:24;11.55;;;10.18;;
8632;SDS011;4354;49.832;10.746;2023-07-24T09:15:03;15.63;;;11.45;;
8632;SDS011;4354;49.832;10.746;2023-07-24T09:17:33;12.90;;;11.05;;
8632;SDS011;4354;49.832;10.746;2023-07-24T09:20:00;11.73;;;10.48;;
8632;SDS011;4354;49.832;10.746;2023-07-24T09:22:28;12.57;;;10.20;;
8632;SDS011;4354;49.832;10.746;2023-07-24T09:24:56;15.00;;;10.15;;
8632;SDS011;4354;49.832;10.746;2023-07-24T09:27:24;15.73;;;11.48;;
8632;SDS011;4354;49.832;10.746;2023-07-24T09:29:52;16.63;;;11.68;;
8632;SDS011;4354;49.832;10.746;2023-07-24T09:32:21;12.45;;;10.30;;
8632;SDS011;4354;49.832;10.746;2023-07-24T09:34:49;17.10;;;11.10;;
8632;SDS011;4354;49.832;10.746;2023-07-24T09:37:27;12.95;;;11.65;;
8632;SDS011;4354;49.832;10.746;2023-07-24T09:39:55;14.15;;;10.95;;
8632;SDS011;4354;49.832;10.746;2023-07-24T09:42:31;17.13;;;11.80;;
8632;SDS011;4354;49.832;10.746;2023-07-24T09:45:00;16.42;;;12.18;;
8632;SDS011;4354;49.832;10.746;2023-07-24T09:47:28;15.25;;;11.48;;
8632;SDS011;4354;49.832;10.746;2023-07-24T09:50:15;12.75;;;11.00;;
8632;SDS011;4354;49.832;10.746;2023-07-24T09:52:42;13.30;;;11.90;;
8632;SDS011;4354;49.832;10.746;2023-07-24T09:55:11;12.93;;;11.63;;
8632;SDS011;4354;49.832;10.746;2023-07-24T09:57:41;14.05;;;11.35;;
8632;SDS011;4354;49.832;10.746;2023-07-24T10:00:10;12.77;;;11.48;;
8632;SDS011;4354;49.832;10.746;2023-07-24T10:02:38;11.77;;;10.38;;
8632;SDS011;4354;49.832;10.746;2023-07-24T10:05:07;14.00;;;10.95;;
8632;SDS011;4354;49.832;10.746;2023-07-24T10:07:34;12.43;;;10.52;;
8632;SDS011;4354;49.832;10.746;2023-07-24T10:10:01;12.02;;;10.30;;
8632;SDS011;4354;49.832;10.746;2023-07-24T10:12:28;13.57;;;10.27;;
8632;SDS011;4354;49.832;10.746;2023-07-24T10:14:58;13.55;;;11.18;;
8632;SDS011;4354;49.832;10.746;2023-07-24T10:17:44;12.35;;;10.45;;
8632;SDS011;4354;49.832;10.746;2023-07-24T10:20:11;13.40;;;10.98;;
8632;SDS011;4354;49.832;10.746;2023-07-24T10:22:41;14.25;;;11.43;;
8632;SDS011;4354;49.832;10.746;2023-07-24T10:25:09;13.82;;;11.18;;
8632;SDS011;4354;49.832;10.746;2023-07-24T10:27:43;12.85;;;10.32;;
8632;SDS011;4354;49.832;10.746;2023-07-24T10:30:12;13.32;;;11.10;;
8632;SDS011;4354;49.832;10.746;2023-07-24T10:35:37;11.02;;;9.82;;
8632;SDS011;4354;49.832;10.746;2023-07-24T10:38:09;11.40;;;10.18;;
8632;SDS011;4354;49.832;10.746;2023-07-24T10:40:36;13.90;;;11.75;;
8632;SDS011;4354;49.832;10.746;2023-07-24T10:43:13;13.70;;;11.90;;
8632;SDS011;4354;49.832;10.746;2023-07-24T10:45:48;13.63;;;11.10;;
8632;SDS011;4354;49.832;10.746;2023-07-24T10:48:16;12.70;;;11.45;;
8632;SDS011;4354;49.832;10.746;2023-07-24T10:50:44;12.70;;;11.50;;
8632;SDS011;4354;49.832;10.746;2023-07-24T10:53:16;13.15;;;10.70;;
8632;SDS011;4354;49.832;10.746;2023-07-24T10:55:44;14.10;;;11.40;;
8632;SDS011;4354;49.832;10.746;2023-07-24T10:58:16;13.93;;;10.52;;
8632;SDS011;4354;49.832;10.746;2023-07-24T11:00:44;13.02;;;10.50;;
8632;SDS011;4354;49.832;10.746;2023-07-24T11:03:11;13.00;;;10.85;;
8632;SDS011;4354;49.832;10.746;2023-07-24T11:05:43;11.90;;;9.65;;
8632;SDS011;4354;49.832;10.746;2023-07-24T11:08:11;11.13;;;9.82;;
8632;SDS011;4354;49.832;10.746;2023-07-24T11:10:49;11.45;;;9.23;;
8632;SDS011;4354;49.832;10.746;2023-07-24T11:13:21;9.88;;;8.95;;
8632;SDS011;4354;49.832;10.746;2023-07-24T11:15:53;10.13;;;8.40;;
8632;SDS011;4354;49.832;10.746;2023-07-24T11:18:21;9.80;;;7.65;;
8632;SDS011;4354;49.832;10.746;2023-07-24T11:20:50;10.98;;;8.50;;
8632;SDS011;4354;49.832;10.746;2023-07-24T11:23:19;9.68;;;7.82;;
8632;SDS011;4354;49.832;10.746;2023-07-24T11:25:46;11.63;;;8.50;;
8632;SDS011;4354;49.832;10.746;2023-07-24T11:28:15;9.75;;;7.95;;
8632;SDS011;4354;49.832;10.746;2023-07-24T11:30:42;8.60;;;7.80;;
8632;SDS011;4354;49.832;10.746;2023-07-24T11:33:11;8.65;;;7.85;;
8632;SDS011;4354;49.832;10.746;2023-07-24T11:35:44;10.50;;;8.35;;
8632;SDS011;4354;49.832;10.746;2023-07-24T11:38:11;9.57;;;8.25;;
8632;SDS011;4354;49.832;10.746;2023-07-24T11:40:39;8.63;;;7.72;;
8632;SDS011;4354;49.832;10.746;2023-07-24T11:43:25;8.30;;;7.50;;
8632;SDS011;4354;49.832;10.746;2023-07-24T11:45:53;8.50;;;7.28;;
8632;SDS011;4354;49.832;10.746;2023-07-24T11:48:20;9.07;;;7.95;;
8632;SDS011;4354;49.832;10.746;2023-07-24T11:50:48;8.45;;;6.95;;
8632;SDS011;4354;49.832;10.746;2023-07-24T11:53:27;10.02;;;7.60;;
8632;SDS011;4354;49.832;10.746;2023-07-24T11:55:56;9.02;;;6.88;;
8632;SDS011;4354;49.832;10.746;2023-07-24T11:58:28;8.05;;;7.25;;
8632;SDS011;4354;49.832;10.746;2023-07-24T12:00:56;8.00;;;6.95;;
8632;SDS011;4354;49.832;10.746;2023-07-24T12:03:26;8.93;;;7.60;;
8632;SDS011;4354;49.832;10.746;2023-07-24T12:05:55;7.80;;;6.90;;
8632;SDS011;4354;49.832;10.746;2023-07-24T12:08:34;11.15;;;7.43;;
8632;SDS011;4354;49.832;10.746;2023-07-24T12:11:04;10.38;;;8.00;;
8632;SDS011;4354;49.832;10.746;2023-07-24T12:13:43;9.82;;;8.30;;
8632;SDS011;4354;49.832;10.746;2023-07-24T12:16:10;8.48;;;7.65;;
8632;SDS011;4354;49.832;10.746;2023-07-24T12:18:37;9.30;;;7.90;;
8632;SDS011;4354;49.832;10.746;2023-07-24T12:21:04;10.35;;;8.20;;
8632;SDS011;4354;49.832;10.746;2023-07-24T12:23:30;9.57;;;8.10;;
8632;SDS011;4354;49.832;10.746;2023-07-24T12:25:57;10.23;;;8.18;;
8632;SDS011;4354;49.832;10.746;2023-07-24T12:28:24;9.73;;;8.30;;
8632;SDS011;4354;49.832;10.746;2023-07-24T12:30:51;9.00;;;8.07;;
8632;SDS011;4354;49.832;10.746;2023-07-24T12:33:18;10.02;;;8.40;;
8632;SDS011;4354;49.832;10.746;2023-07-24T12:35:50;12.43;;;9.27;;
8632;SDS011;4354;49.832;10.746;2023-07-24T12:38:19;9.45;;;8.45;;
8632;SDS011;4354;49.832;10.746;2023-07-24T12:40:46;9.30;;;7.95;;
8632;SDS011;4354;49.832;10.746;2023-07-24T12:43:15;9.35;;;8.15;;
8632;SDS011;4354;49.832;10.746;2023-07-24T12:45:42;11.38;;;8.07;;
8632;SDS011;4354;49.832;10.746;2023-07-24T12:48:08;10.13;;;8.68;;
8632;SDS011;4354;49.832;10.746;2023-07-24T12:50:35;8.80;;;7.90;;
8632;SDS011;4354;49.832;10.746;2023-07-24T12:53:02;11.82;;;8.40;;
8632;SDS011;4354;49.832;10.746;2023-07-24T12:55:34;10.43;;;8.40;;
8632;SDS011;4354;49.832;10.746;2023-07-24T12:58:01;11.35;;;8.35;;
8632;SDS011;4354;49.832;10.746;2023-07-24T13:00:29;10.50;;;8.23;;
8632;SDS011;4354;49.832;10.746;2023-07-24T13:02:58;11.05;;;8.27;;
8632;SDS011;4354;49.832;10.746;2023-07-24T13:05:25;9.93;;;8.05;;
8632;SDS011;4354;49.832;10.746;2023-07-24T13:07:52;9.02;;;8.05;;
8632;SDS011;4354;49.832;10.746;2023-07-24T13:10:19;12.23;;;8.70;;
8632;SDS011;4354;49.832;10.746;2023-07-24T13:12:46;12.00;;;9.00;;
8632;SDS011;4354;49.832;10.746;2023-07-24T13:15:13;9.38;;;8.07;;
8632;SDS011;4354;49.832;10.746;2023-07-24T13:17:40;9.18;;;8.05;;
8632;SDS011;4354;49.832;10.746;2023-07-24T13:20:07;10.25;;;7.93;;
8632;SDS011;4354;49.832;10.746;2023-07-24T13:22:34;10.40;;;8.52;;
8632;SDS011;4354;49.832;10.746;2023-07-24T13:25:01;8.68;;;7.78;;
8632;SDS011;4354;49.832;10.746;2023-07-24T13:27:28;10.18;;;8.02;;
8632;SDS011;4354;49.832;10.746;2023-07-24T13:29:55;9.15;;;8.15;;
8632;SDS011;4354;49.832;10.746;2023-07-24T13:32:21;8.25;;;7.45;;
8632;SDS011;4354;49.832;10.746;2023-07-24T13:34:48;8.65;;;7.38;;
8632;SDS011;4354;49.832;10.746;2023-07-24T13:37:15;7.72;;;6.93;;
8632;SDS011;4354;49.832;10.746;2023-07-24T13:39:42;11.80;;;7.95;;
8632;SDS011;4354;49.832;10.746;2023-07-24T13:42:08;8.10;;;7.32;;
8632;SDS011;4354;49.832;10.746;2023-07-24T13:44:35;8.68;;;7.32;;
8632;SDS011;4354;49.832;10.746;2023-07-24T13:47:02;7.82;;;7.00;;
8632;SDS011;4354;49.832;10.746;2023-07-24T13:49:29;8.82;;;7.35;;
8632;SDS011;4354;49.832;10.746;2023-07-24T13:51:56;8.38;;;7.50;;
8632;SDS011;4354;49.832;10.746;2023-07-24T13:54:23;8.95;;;7.00;;
8632;SDS011;4354;49.832;10.746;2023-07-24T13:56:49;8.07;;;7.00;;
8632;SDS011;4354;49.832;10.746;2023-07-24T13:59:16;8.52;;;7.30;;
8632;SDS011;4354;49.832;10.746;2023-07-24T14:01:43;8.98;;;7.30;;
8632;SDS011;4354;49.832;10.746;2023-07-24T14:04:11;7.68;;;6.82;;
8632;SDS011;4354;49.832;10.746;2023-07-24T14:06:38;9.52;;;7.07;;
8632;SDS011;4354;49.832;10.746;2023-07-24T14:09:05;8.80;;;6.85;;
8632;SDS011;4354;49.832;10.746;2023-07-24T14:11:32;7.40;;;6.70;;
8632;SDS011;4354;49.832;10.746;2023-07-24T14:13:59;8.80;;;6.93;;
8632;SDS011;4354;49.832;10.746;2023-07-24T14:16:26;8.43;;;7.03;;
8632;SDS011;4354;49.832;10.746;2023-07-24T14:18:52;7.53;;;6.72;;
8632;SDS011;4354;49.832;10.746;2023-07-24T14:21:19;7.45;;;6.55;;
8632;SDS011;4354;49.832;10.746;2023-07-24T14:23:46;7.88;;;7.07;;
8632;SDS011;4354;49.832;10.746;2023-07-24T14:26:13;7.53;;;6.50;;
8632;SDS011;4354;49.832;10.746;2023-07-24T14:28:40;8.02;;;7.18;;
8632;SDS011;4354;49.832;10.746;2023-07-24T14:31:07;9.23;;;7.18;;
8632;SDS011;4354;49.832;10.746;2023-07-24T14:33:33;8.70;;;6.75;;
8632;SDS011;4354;49.832;10.746;2023-07-24T14:36:00;7.88;;;7.07;;
8632;SDS011;4354;49.832;10.746;2023-07-24T14:38:28;9.65;;;7.15;;
8632;SDS011;4354;49.832;10.746;2023-07-24T14:40:54;7.55;;;6.80;;
8632;SDS011;4354;49.832;10.746;2023-07-24T14:43:21;7.93;;;6.78;;
8632;SDS011;4354;49.832;10.746;2023-07-24T14:45:48;8.02;;;7.22;;
8632;SDS011;4354;49.832;10.746;2023-07-24T14:48:16;8.50;;;6.20;;
8632;SDS011;4354;49.832;10.746;2023-07-24T14:50:43;7.97;;;6.57;;
8632;SDS011;4354;49.832;10.746;2023-07-24T14:53:10;7.75;;;7.05;;
8632;SDS011;4354;49.832;10.746;2023-07-24T14:55:37;7.88;;;7.07;;
8632;SDS011;4354;49.832;10.746;2023-07-24T14:58:04;7.53;;;6.78;;
8632;SDS011;4354;49.832;10.746;2023-07-24T15:00:31;6.85;;;5.80;;
8632;SDS011;4354;49.832;10.746;2023-07-24T15:02:59;7.45;;;6.55;;